LEHU
43.22.63N 005.49.57W
IN73CJ aprs.fi
zuletzt gehoert:
2021-04-19T17:30:02Z
zuerst gehoert:
2020-05-10T21:53:41Z

APRS Oviedo [IN73CI], 0 Stunde(n), LEHU [19:51:41, 0s].
LEHU 43.22.63N 005.49.57WIN73CJ 0.566km 326°NW17:30:02ZHelipuerto del HUCA: LEAS 191700Z 31007KT 280V010 9999 FEW030 15/09 Q1017 NOSIG=
33D00 43.21.63N 005.51.13WIN73BI 2.779km 240°WSW17:01:43Z33-D-00 Protección Civil REMER / Delegación del Gobierno en Asturias
EA1YR 43.22.09N 005.51.86WIN73BI 3.444km 261°W17:32:55ZMMDVM DVS 434.3500/434.3500 CC1
EA1L 43.20.37N 005.51.13WIN73BI 4.417km 213°SSW17:50:04Zea1l@ure.es V=11.5V,T=??.?C
Wind 000°/000kn, Böen bis 000kn, Temp 0.00c, Regen 0.0mm, letzte 24h 0.0mm, seit 0h 0.0mm, Baro 0000.0h, Hum: 0%(2EA1L-13)
ED1ZAU 43.23.04N 005.52.75WIN73BJ 4.764km 285°WNW17:36:12ZRD625 438.5000/430.9000 CC1
EA1ABW 43.24.77N 005.47.77WIN73CJ 4.923km 25°NNE17:31:23ZMMDVM MMDVM HS Hat 439.8250/439.8250 CC1
LEMR 43.25.83N 005.49.60WIN73CK 6.407km 357°N17:30:04ZAerodromo de la Morgal: LEAS 191700Z 31007KT 280V010 9999 FEW030 15/09 Q1017 NOSIG=
LEGM 43.26.15N 005.49.84WIN73CK 7.040km 355°N17:30:02ZHelipuerto de La Morgal: LEAS 191700Z 31007KT 280V010 9999 FEW030 15/09 Q1017 NOSIG=
EA1IMW 43.14.36N 005.46.93WIN73CF 15.209km 168°SSE17:31:05ZGRUPO RADIO GALENA (GRG) 433.4500/433.4500 CC1
ED1ZAS 43.27.52N 005.40.17WIN73DL 15.595km 52°NE17:36:16ZRD985 438.2250/430.6250 CC1
ED1ZAE 43.27.99N 005.40.54WIN73DL 15.753km 49°NE17:49:08Z2m Voice 145.5875 -0.600 Mhz(3ED1ZAE-C)
WIDE3-3 ESAS3-3 IN73DL WWW.EA1URG.ORG(2ED1ZAE-3)
ED1ZAY 43.29.47N 005.56.54WIN73AL 16.348km 324°NW17:36:11ZRD625 438.3000/430.7000 CC1
EA1FLQ 43.22.00N 005.36.35WIN73EI 17.501km 92°E17:34:43ZMMDVM DVMega 439.9750/439.9750 CC5
EB1DGC 43.12.60N 005.45.59WIN73CF 18.808km 164°SSE17:31:14ZMMDVM MMDVM HS Hat 433.4500/433.4500 CC1
EA1JBL 43.12.28N 005.47.42WIN73CE 18.870km 172°S17:31:38ZMMDVM DVMega 435.3000/435.3000 CC1
EA1HWA 43.12.00N 005.47.40WIN73CE 19.408km 172°S17:33:51ZMMDVM MMDVM HS Hat 433.4500/433.4500 CC1
EA1AHA 43.32.72N 005.54.38WIN73BN 20.343km 341°NNW17:51:34ZWind 180°/004kn, Böen bis 007kn, Temp 15.56c, Regen 0.0mm, letzte 24h 0.0mm, seit 0h 0.0mm, Baro 1018.5h, Hum: 61%(3EA1AHA-13)
EB1TK 43.32.22N 005.42.32WIN73DM 20.554km 27°NNE17:45:15ZWind 345°/004kn, Böen bis 009kn, Temp 15.56c, Regen 0.0mm, letzte 24h 0.0mm, seit 0h 0.0mm, Baro 1020.0h, Hum: 68%(3EB1TK-13)
EA1FFA 43.31.53N 005.40.64WIN73DM 20.621km 35°NE17:33:33ZMMDVM MMDVM HS Hat 438.8000/438.8000 CC1
EA1DZR 43.31.47N 005.40.00WIN73DM 21.010km 37°NE17:35:43ZMMDVM DVMega 431.1000/431.1000 CC1
EA1AQK 43.16.49N 005.35.99WIN73EG 21.026km 121°ESE17:31:40ZMMDVM MMDVM HS Hat 439.8500/439.8500 CC1
EA1IZV 43.33.25N 005.55.92WIN73AN 22.008km 336°NNW17:45:02ZEn proceso...
LEEL 43.32.98N 005.41.71WIN73DN 22.159km 28°NNE17:30:04ZHelipuerto de El Musel: LEAS 191700Z 31007KT 280V010 9999 FEW030 15/09 Q1017 NOSIG=
EB1GEM 43.30.00N 005.36.07WIN73EM 22.779km 52°NE17:36:49ZWX3in1Plus2.0 U=13.3V,T=??.?C/??.?F(3EB1GEM-3)
EA1RCG 43.09.45N 005.49.78WIN73CD 23.944km 181°S17:35:49ZGRUPO RADIO GALENA (GRG) 433.4500/433.4500 CC1
EA1DHE 43.33.98N 005.58.57WIN73AN 24.839km 330°NNW17:32:59ZMMDVM DVS 434.3500/434.3500 CC1
EA1HJA 43.28.10N 005.30.45WIN73FL 27.548km 67°ENE17:40:19ZEA1HJA@URE.ES
IN73FL WX3IN1+ 2.0 - V=13.3V,TX TEMP=29.6C(2EA1HJA-2)
ED1ZAD 43.07.90N 005.38.52WIN73ED 30.522km 151°SSE17:44:49ZED1ZAD-3 APRS Digi/Igate(3ED1ZAD-3)
EA1FHR 43.28.72N 005.26.41WIN73GL 33.010km 69°ENE17:34:14ZMMDVM MMDVM HS Hat 439.1500/439.1500 CC1
EA1JAY 43.29.32N 005.26.60WIN73GL 33.203km 67°ENE17:34:45Z434.525MHz Nodo TETRA DMO(3EA1JAY-4)
EA1JAY(2EA1JAY-2)
EA1JAY 438.8000/438.8000 CC1(2EA1JAY)
EC1KV 43.34.01N 006.16.01WIN63UN 41.841km 301°WNW17:42:24Z VOLT.=13.6 V - TEMP.=??.? C(3EC1KV-1)
LETN 43.20.05N 006.22.69WIN63TI 45.151km 265°W17:30:04ZAerodromo de La Curiscada (Tineo): LEAS 191700Z 31007KT 280V010 9999 FEW030 15/09 Q1017 NOSIG=
EC1AE 43.08.94N 006.18.77WIN63UD 46.882km 238°WSW17:47:55ZSOMIEDO - ASTURIAS(3EC1AE-2)
EA1JBE 43.30.90N 005.16.15WIN73IM 47.364km 70°ENE17:49:48ZHelipuerto del HUCA: LEAS 191700Z 31007KT 280V010 9999 FEW030 15/09 Q1017 NOSIG=(3EA1JBE-2)
Transmission ended(2EA1JBE-9)
MAIN QTH http://qrz.com/db/ea1jbe(2EA1JBE-1)
MAIN QTH http://qrz.com/db/ea1jbe(2EA1JBE-13)

aprs.pl 5.0.011w DL3EL © 2006-2021 [270582]